Monday, October 16, 2017, 5:57 PM EDT
Back to Local

KHGR, Hagerstown Regional Airport

Location: Hagerstown, MD, United States Lat: 39.7
Local Time: 5:57 PM EDT (21:57 GMT) Lon: -77.733
Time Zone: US/Eastern Elev: 705 ft

Show me the last for .
Show Decoded

2017-10-16 16:53 METAR KHGR 162053Z 31017G22KT 10SM FEW040 17/01 A3014 RMK AO2 SLP216 T01670006
                 53008 =
2017-10-16 15:53 METAR KHGR 161953Z 31017G23KT 10SM FEW040 17/02 A3013 RMK AO2 PK WND 32027/1912
                 SLP210 T01720017 =
2017-10-16 14:53 METAR KHGR 161853Z 34016G23KT 10SM FEW040 17/01 A3012 RMK AO2 PK WND 31028/1754
                 SLP206 T01670006 =
2017-10-16 13:53 METAR KHGR 161753Z 31019G25KT 10SM FEW040 17/03 A3012 RMK AO2 SLP206 T01720028
                 10172 20128 58000 =
2017-10-16 12:53 METAR KHGR 161653Z 33016G22KT 10SM CLR 16/03 A3013 RMK AO2 SLP209 T01610028 =
2017-10-16 11:53 METAR KHGR 161553Z 32013G24KT 10SM CLR 14/04 A3013 RMK AO2 PK WND 33030/1458
                 SLP211 T01390039 =
2017-10-16 10:53 METAR KHGR 161453Z 32017KT 10SM SCT036 14/06 A3012 RMK AO2 PK WND 32027/1406
                 SLP208 T01440056 50020 =
2017-10-16 09:53 METAR KHGR 161353Z 33013G25KT 10SM OVC034 13/06 A3013 RMK AO2 SLP209 T01330061 =
2017-10-16 08:53 METAR KHGR 161253Z 30014KT 10SM FEW041 13/06 A3009 RMK AO2 PK WND 33026/1223
                 SLP198 T01330061 =
2017-10-16 07:53 METAR KHGR 161153Z 33012KT 10SM SCT035 BKN044 OVC050 14/08 A3006 RMK AO2 SLP186
                 70007 T01390078 10189 20139 53021 =
2017-10-16 06:53 METAR KHGR 161053Z 31014KT 10SM OVC050 15/08 A3003 RMK AO2 SLP174 T01500083 =
2017-10-16 05:53 METAR KHGR 160953Z AUTO 28008KT 10SM BKN050 16/10 A3000 RMK AO2 SLP164 T01560100
                 =
2017-10-16 04:53 METAR KHGR 160853Z AUTO 29010KT 10SM CLR 16/10 A3000 RMK AO2 SLP163 T01610100
                 53014 =
2017-10-16 03:53 METAR KHGR 160753Z AUTO 32009KT 10SM CLR 17/11 A2996 RMK AO2 SLP152 T01670106 =
2017-10-16 02:53 METAR KHGR 160653Z AUTO 32010KT 10SM BKN033 OVC042 17/12 A2996 RMK AO2 SLP151
                 T01720122 =
2017-10-16 01:53 METAR KHGR 160553Z AUTO 28004KT 10SM FEW029 BKN043 OVC110 18/14 A2996 RMK AO2
                 RAB09E21 SLP149 P0000 60007 T01780144 10233 20178 51018 =
2017-10-16 00:53 METAR KHGR 160453Z AUTO 30006KT 10SM FEW065 OVC075 18/15 A2994 RMK AO2 RAB15E51
                 SLP145 P0000 T01830150 402670167 =
2017-10-15 23:53 METAR KHGR 160353Z AUTO 30008KT 10SM OVC070 19/16 A2992 RMK AO2 RAE48 SLP138
                 P0001 T01890156 =
2017-10-15 22:53 METAR KHGR 160253Z AUTO 29007KT 4SM -RA BR FEW019 BKN038 OVC065 19/17 A2990 RMK
                 AO2 PK WND 31028/0218 WSHFT 0216 RAB20 SLP132 P0006 60006 T01890172 53024 =
2017-10-15 22:36 METAR KHGR 160236Z AUTO 31018G25KT 6SM -RA BR SCT036 BKN048 OVC060 19/17 A2989
                 RMK AO2 PK WND 31028/0218 WSHFT 0216 RAB20 P0002 T01940172 =
2017-10-15 21:53 METAR KHGR 160153Z 19007KT 10SM FEW075 OVC100 23/18 A2983 RMK AO2 SLP106
                 T02330183 =
2017-10-15 20:53 METAR KHGR 160053Z 19006KT 10SM SCT070 OVC100 23/18 A2983 RMK AO2 SLP107
                 T02280183 =
2017-10-15 19:53 METAR KHGR 152353Z 18010KT 10SM CLR 23/18 A2983 RMK AO2 SLP108 T02280183 10267
                 20228 56009 =
2017-10-15 18:53 METAR KHGR 152253Z 18009KT 10SM CLR 24/18 A2983 RMK AO2 SLP107 T02390183 =

Support USWX by starting your Amazon purchase here.